sensor_id;sensor_type;location;lat;lon;timestamp;P1;durP1;ratioP1;P2;durP2;ratioP2
15913;SDS011;8055;51.930;8.840;2024-02-28T00:00:09;39.22;;;20.10;;
15913;SDS011;8055;51.930;8.840;2024-02-28T00:02:36;42.33;;;20.35;;
15913;SDS011;8055;51.930;8.840;2024-02-28T00:05:01;43.78;;;21.50;;
15913;SDS011;8055;51.930;8.840;2024-02-28T00:07:27;42.58;;;20.70;;
15913;SDS011;8055;51.930;8.840;2024-02-28T00:09:52;33.67;;;18.42;;
15913;SDS011;8055;51.930;8.840;2024-02-28T00:12:22;33.67;;;18.33;;
15913;SDS011;8055;51.930;8.840;2024-02-28T00:14:50;35.95;;;18.73;;
15913;SDS011;8055;51.930;8.840;2024-02-28T00:17:15;41.80;;;21.15;;
15913;SDS011;8055;51.930;8.840;2024-02-28T00:19:40;35.58;;;19.08;;
15913;SDS011;8055;51.930;8.840;2024-02-28T00:22:07;30.27;;;17.35;;
15913;SDS011;8055;51.930;8.840;2024-02-28T00:24:33;35.95;;;20.33;;
15913;SDS011;8055;51.930;8.840;2024-02-28T00:26:58;38.42;;;20.00;;
15913;SDS011;8055;51.930;8.840;2024-02-28T00:29:23;38.38;;;20.38;;
15913;SDS011;8055;51.930;8.840;2024-02-28T00:31:49;40.00;;;21.15;;
15913;SDS011;8055;51.930;8.840;2024-02-28T00:34:14;50.38;;;23.75;;
15913;SDS011;8055;51.930;8.840;2024-02-28T00:36:40;42.78;;;22.88;;
15913;SDS011;8055;51.930;8.840;2024-02-28T00:39:05;43.25;;;23.13;;
15913;SDS011;8055;51.930;8.840;2024-02-28T00:41:31;41.13;;;22.15;;
15913;SDS011;8055;51.930;8.840;2024-02-28T00:43:56;43.03;;;21.92;;
15913;SDS011;8055;51.930;8.840;2024-02-28T00:46:21;45.65;;;23.52;;
15913;SDS011;8055;51.930;8.840;2024-02-28T00:48:47;42.30;;;22.55;;
15913;SDS011;8055;51.930;8.840;2024-02-28T00:51:12;44.38;;;23.90;;
15913;SDS011;8055;51.930;8.840;2024-02-28T00:53:38;48.53;;;23.10;;
15913;SDS011;8055;51.930;8.840;2024-02-28T00:56:04;40.70;;;21.70;;
15913;SDS011;8055;51.930;8.840;2024-02-28T00:58:30;50.20;;;24.60;;
15913;SDS011;8055;51.930;8.840;2024-02-28T01:00:56;44.30;;;22.70;;
15913;SDS011;8055;51.930;8.840;2024-02-28T01:03:22;39.47;;;21.35;;
15913;SDS011;8055;51.930;8.840;2024-02-28T01:05:48;44.28;;;22.75;;
15913;SDS011;8055;51.930;8.840;2024-02-28T01:08:14;48.97;;;26.13;;
15913;SDS011;8055;51.930;8.840;2024-02-28T01:10:42;51.63;;;25.60;;
15913;SDS011;8055;51.930;8.840;2024-02-28T01:13:07;40.78;;;23.15;;
15913;SDS011;8055;51.930;8.840;2024-02-28T01:15:33;48.67;;;24.02;;
15913;SDS011;8055;51.930;8.840;2024-02-28T01:17:58;39.75;;;22.25;;
15913;SDS011;8055;51.930;8.840;2024-02-28T01:20:23;46.03;;;22.63;;
15913;SDS011;8055;51.930;8.840;2024-02-28T01:22:49;45.45;;;23.75;;
15913;SDS011;8055;51.930;8.840;2024-02-28T01:25:14;47.20;;;24.60;;
15913;SDS011;8055;51.930;8.840;2024-02-28T01:27:39;49.35;;;24.90;;
15913;SDS011;8055;51.930;8.840;2024-02-28T01:30:05;49.20;;;24.45;;
15913;SDS011;8055;51.930;8.840;2024-02-28T01:32:31;44.65;;;23.45;;
15913;SDS011;8055;51.930;8.840;2024-02-28T01:34:56;48.63;;;24.95;;
15913;SDS011;8055;51.930;8.840;2024-02-28T01:37:22;39.78;;;21.20;;
15913;SDS011;8055;51.930;8.840;2024-02-28T01:39:47;47.75;;;23.95;;
15913;SDS011;8055;51.930;8.840;2024-02-28T01:42:13;45.92;;;23.30;;
15913;SDS011;8055;51.930;8.840;2024-02-28T01:44:48;49.65;;;24.80;;
15913;SDS011;8055;51.930;8.840;2024-02-28T01:47:14;42.28;;;21.33;;
15913;SDS011;8055;51.930;8.840;2024-02-28T01:49:40;39.35;;;21.35;;
15913;SDS011;8055;51.930;8.840;2024-02-28T01:52:07;47.85;;;23.23;;
15913;SDS011;8055;51.930;8.840;2024-02-28T01:54:34;46.45;;;23.25;;
15913;SDS011;8055;51.930;8.840;2024-02-28T01:57:00;50.65;;;24.52;;
15913;SDS011;8055;51.930;8.840;2024-02-28T01:59:26;47.15;;;24.42;;
15913;SDS011;8055;51.930;8.840;2024-02-28T02:01:54;43.47;;;23.05;;
15913;SDS011;8055;51.930;8.840;2024-02-28T02:04:20;48.20;;;24.45;;
15913;SDS011;8055;51.930;8.840;2024-02-28T02:06:46;44.50;;;22.65;;
15913;SDS011;8055;51.930;8.840;2024-02-28T02:09:14;48.65;;;23.30;;
15913;SDS011;8055;51.930;8.840;2024-02-28T02:11:40;48.10;;;24.73;;
15913;SDS011;8055;51.930;8.840;2024-02-28T02:14:06;49.15;;;25.08;;
15913;SDS011;8055;51.930;8.840;2024-02-28T02:16:31;45.88;;;23.85;;
15913;SDS011;8055;51.930;8.840;2024-02-28T02:18:56;48.42;;;24.80;;
15913;SDS011;8055;51.930;8.840;2024-02-28T02:21:33;51.13;;;25.50;;
15913;SDS011;8055;51.930;8.840;2024-02-28T02:24:02;49.33;;;25.00;;
15913;SDS011;8055;51.930;8.840;2024-02-28T02:26:28;50.58;;;26.23;;
15913;SDS011;8055;51.930;8.840;2024-02-28T02:28:53;53.00;;;27.58;;
15913;SDS011;8055;51.930;8.840;2024-02-28T02:31:19;48.25;;;24.17;;
15913;SDS011;8055;51.930;8.840;2024-02-28T02:33:45;44.65;;;23.15;;
15913;SDS011;8055;51.930;8.840;2024-02-28T02:36:10;45.67;;;24.42;;
15913;SDS011;8055;51.930;8.840;2024-02-28T02:38:35;46.03;;;24.17;;
15913;SDS011;8055;51.930;8.840;2024-02-28T02:41:01;56.63;;;27.33;;
15913;SDS011;8055;51.930;8.840;2024-02-28T02:43:26;47.65;;;24.70;;
15913;SDS011;8055;51.930;8.840;2024-02-28T02:45:51;52.28;;;27.48;;
15913;SDS011;8055;51.930;8.840;2024-02-28T02:48:17;51.38;;;25.77;;
15913;SDS011;8055;51.930;8.840;2024-02-28T02:50:42;45.67;;;25.13;;
15913;SDS011;8055;51.930;8.840;2024-02-28T02:53:08;55.47;;;27.17;;
15913;SDS011;8055;51.930;8.840;2024-02-28T02:55:35;55.40;;;27.80;;
15913;SDS011;8055;51.930;8.840;2024-02-28T02:58:00;55.22;;;27.90;;
15913;SDS011;8055;51.930;8.840;2024-02-28T03:00:26;53.47;;;27.23;;
15913;SDS011;8055;51.930;8.840;2024-02-28T03:02:51;51.65;;;25.98;;
15913;SDS011;8055;51.930;8.840;2024-02-28T03:05:16;52.65;;;26.95;;
15913;SDS011;8055;51.930;8.840;2024-02-28T03:07:42;50.53;;;25.52;;
15913;SDS011;8055;51.930;8.840;2024-02-28T03:10:07;57.55;;;29.27;;
15913;SDS011;8055;51.930;8.840;2024-02-28T03:12:34;50.60;;;25.88;;
15913;SDS011;8055;51.930;8.840;2024-02-28T03:15:00;50.88;;;26.20;;
15913;SDS011;8055;51.930;8.840;2024-02-28T03:17:25;61.58;;;29.95;;
15913;SDS011;8055;51.930;8.840;2024-02-28T03:19:50;47.22;;;24.92;;
15913;SDS011;8055;51.930;8.840;2024-02-28T03:22:16;51.05;;;26.20;;
15913;SDS011;8055;51.930;8.840;2024-02-28T03:24:41;49.30;;;25.42;;
15913;SDS011;8055;51.930;8.840;2024-02-28T03:27:06;46.53;;;24.52;;
15913;SDS011;8055;51.930;8.840;2024-02-28T03:29:35;57.65;;;29.83;;
15913;SDS011;8055;51.930;8.840;2024-02-28T03:32:00;57.97;;;29.38;;
15913;SDS011;8055;51.930;8.840;2024-02-28T03:34:25;56.08;;;27.92;;
15913;SDS011;8055;51.930;8.840;2024-02-28T03:36:51;55.42;;;27.10;;
15913;SDS011;8055;51.930;8.840;2024-02-28T03:39:16;53.50;;;27.15;;
15913;SDS011;8055;51.930;8.840;2024-02-28T03:41:42;53.97;;;28.10;;
15913;SDS011;8055;51.930;8.840;2024-02-28T03:44:08;57.88;;;31.33;;
15913;SDS011;8055;51.930;8.840;2024-02-28T03:46:33;53.72;;;28.83;;
15913;SDS011;8055;51.930;8.840;2024-02-28T03:48:59;55.38;;;28.25;;
15913;SDS011;8055;51.930;8.840;2024-02-28T03:51:24;58.63;;;29.23;;
15913;SDS011;8055;51.930;8.840;2024-02-28T03:53:49;53.30;;;27.13;;
15913;SDS011;8055;51.930;8.840;2024-02-28T03:56:22;52.95;;;26.80;;
15913;SDS011;8055;51.930;8.840;2024-02-28T03:58:50;58.95;;;28.52;;
15913;SDS011;8055;51.930;8.840;2024-02-28T04:01:16;55.58;;;30.08;;
15913;SDS011;8055;51.930;8.840;2024-02-28T04:03:42;52.67;;;26.58;;
15913;SDS011;8055;51.930;8.840;2024-02-28T04:06:07;56.72;;;28.17;;
15913;SDS011;8055;51.930;8.840;2024-02-28T04:08:32;50.83;;;26.73;;
15913;SDS011;8055;51.930;8.840;2024-02-28T04:10:58;60.10;;;29.67;;
15913;SDS011;8055;51.930;8.840;2024-02-28T04:13:23;57.58;;;28.73;;
15913;SDS011;8055;51.930;8.840;2024-02-28T04:15:48;50.45;;;26.25;;
15913;SDS011;8055;51.930;8.840;2024-02-28T04:18:14;50.67;;;25.75;;
15913;SDS011;8055;51.930;8.840;2024-02-28T04:20:39;51.33;;;27.45;;
15913;SDS011;8055;51.930;8.840;2024-02-28T04:23:05;57.53;;;28.80;;
15913;SDS011;8055;51.930;8.840;2024-02-28T04:25:30;53.50;;;26.88;;
15913;SDS011;8055;51.930;8.840;2024-02-28T04:27:55;52.95;;;28.13;;
15913;SDS011;8055;51.930;8.840;2024-02-28T04:30:22;58.80;;;29.17;;
15913;SDS011;8055;51.930;8.840;2024-02-28T04:32:47;53.53;;;27.17;;
15913;SDS011;8055;51.930;8.840;2024-02-28T04:35:12;61.60;;;31.23;;
15913;SDS011;8055;51.930;8.840;2024-02-28T04:37:40;56.05;;;28.42;;
15913;SDS011;8055;51.930;8.840;2024-02-28T04:40:06;54.92;;;28.55;;
15913;SDS011;8055;51.930;8.840;2024-02-28T04:42:32;58.05;;;29.20;;
15913;SDS011;8055;51.930;8.840;2024-02-28T04:44:57;65.30;;;31.13;;
15913;SDS011;8055;51.930;8.840;2024-02-28T04:47:22;50.92;;;27.15;;
15913;SDS011;8055;51.930;8.840;2024-02-28T04:49:48;58.10;;;28.73;;
15913;SDS011;8055;51.930;8.840;2024-02-28T04:52:13;58.85;;;29.73;;
15913;SDS011;8055;51.930;8.840;2024-02-28T04:54:40;60.03;;;30.70;;
15913;SDS011;8055;51.930;8.840;2024-02-28T04:57:05;58.13;;;29.77;;
15913;SDS011;8055;51.930;8.840;2024-02-28T04:59:31;59.30;;;28.80;;
15913;SDS011;8055;51.930;8.840;2024-02-28T05:01:57;58.30;;;28.42;;
15913;SDS011;8055;51.930;8.840;2024-02-28T05:04:22;59.25;;;30.00;;
15913;SDS011;8055;51.930;8.840;2024-02-28T05:06:48;52.75;;;27.13;;
15913;SDS011;8055;51.930;8.840;2024-02-28T05:09:14;61.03;;;30.10;;
15913;SDS011;8055;51.930;8.840;2024-02-28T05:11:40;60.95;;;30.05;;
15913;SDS011;8055;51.930;8.840;2024-02-28T05:14:05;60.58;;;30.33;;
15913;SDS011;8055;51.930;8.840;2024-02-28T05:16:31;64.32;;;29.67;;
15913;SDS011;8055;51.930;8.840;2024-02-28T05:18:57;57.38;;;29.50;;
15913;SDS011;8055;51.930;8.840;2024-02-28T05:21:22;58.80;;;28.73;;
15913;SDS011;8055;51.930;8.840;2024-02-28T05:23:48;55.85;;;29.13;;
15913;SDS011;8055;51.930;8.840;2024-02-28T05:26:13;58.13;;;29.48;;
15913;SDS011;8055;51.930;8.840;2024-02-28T05:28:39;59.35;;;30.25;;
15913;SDS011;8055;51.930;8.840;2024-02-28T05:31:18;55.67;;;28.05;;
15913;SDS011;8055;51.930;8.840;2024-02-28T05:33:49;59.45;;;29.50;;
15913;SDS011;8055;51.930;8.840;2024-02-28T05:36:16;54.70;;;28.08;;
15913;SDS011;8055;51.930;8.840;2024-02-28T05:38:42;55.92;;;29.98;;
15913;SDS011;8055;51.930;8.840;2024-02-28T05:41:08;56.65;;;27.58;;
15913;SDS011;8055;51.930;8.840;2024-02-28T05:43:33;64.95;;;29.80;;
15913;SDS011;8055;51.930;8.840;2024-02-28T05:45:58;55.33;;;27.00;;
15913;SDS011;8055;51.930;8.840;2024-02-28T05:48:24;51.00;;;27.23;;
15913;SDS011;8055;51.930;8.840;2024-02-28T05:50:49;55.65;;;28.05;;
15913;SDS011;8055;51.930;8.840;2024-02-28T05:53:14;54.40;;;27.58;;
15913;SDS011;8055;51.930;8.840;2024-02-28T05:55:40;52.83;;;27.55;;
15913;SDS011;8055;51.930;8.840;2024-02-28T05:58:05;56.38;;;28.13;;
15913;SDS011;8055;51.930;8.840;2024-02-28T06:00:30;50.85;;;25.85;;
15913;SDS011;8055;51.930;8.840;2024-02-28T06:02:56;54.35;;;26.50;;
15913;SDS011;8055;51.930;8.840;2024-02-28T06:05:21;51.20;;;25.90;;
15913;SDS011;8055;51.930;8.840;2024-02-28T06:07:46;59.78;;;28.45;;
15913;SDS011;8055;51.930;8.840;2024-02-28T06:10:12;54.25;;;27.42;;
15913;SDS011;8055;51.930;8.840;2024-02-28T06:12:37;53.20;;;25.83;;
15913;SDS011;8055;51.930;8.840;2024-02-28T06:15:03;56.65;;;26.50;;
15913;SDS011;8055;51.930;8.840;2024-02-28T06:17:29;51.78;;;24.63;;
15913;SDS011;8055;51.930;8.840;2024-02-28T06:19:55;60.47;;;29.70;;
15913;SDS011;8055;51.930;8.840;2024-02-28T06:22:20;54.15;;;27.23;;
15913;SDS011;8055;51.930;8.840;2024-02-28T06:24:46;54.92;;;26.95;;
15913;SDS011;8055;51.930;8.840;2024-02-28T06:27:11;60.13;;;30.02;;
15913;SDS011;8055;51.930;8.840;2024-02-28T06:29:38;54.58;;;27.88;;
15913;SDS011;8055;51.930;8.840;2024-02-28T06:32:06;54.65;;;27.95;;
15913;SDS011;8055;51.930;8.840;2024-02-28T06:34:32;56.58;;;27.63;;
15913;SDS011;8055;51.930;8.840;2024-02-28T06:36:57;48.67;;;25.25;;
15913;SDS011;8055;51.930;8.840;2024-02-28T06:39:23;58.03;;;28.73;;
15913;SDS011;8055;51.930;8.840;2024-02-28T06:41:48;59.45;;;30.63;;
15913;SDS011;8055;51.930;8.840;2024-02-28T06:44:19;56.92;;;28.48;;
15913;SDS011;8055;51.930;8.840;2024-02-28T06:46:44;61.60;;;29.52;;
15913;SDS011;8055;51.930;8.840;2024-02-28T06:49:10;55.50;;;27.35;;
15913;SDS011;8055;51.930;8.840;2024-02-28T06:51:35;59.65;;;29.77;;
15913;SDS011;8055;51.930;8.840;2024-02-28T06:54:00;54.55;;;26.08;;
15913;SDS011;8055;51.930;8.840;2024-02-28T06:56:26;60.20;;;30.10;;
15913;SDS011;8055;51.930;8.840;2024-02-28T06:58:51;67.07;;;30.95;;
15913;SDS011;8055;51.930;8.840;2024-02-28T07:01:17;61.00;;;30.42;;
15913;SDS011;8055;51.930;8.840;2024-02-28T07:03:43;59.72;;;28.73;;
15913;SDS011;8055;51.930;8.840;2024-02-28T07:06:09;65.00;;;29.98;;
15913;SDS011;8055;51.930;8.840;2024-02-28T07:08:34;64.25;;;29.48;;
15913;SDS011;8055;51.930;8.840;2024-02-28T07:10:59;69.05;;;31.95;;
15913;SDS011;8055;51.930;8.840;2024-02-28T07:13:25;77.70;;;33.08;;
15913;SDS011;8055;51.930;8.840;2024-02-28T07:15:52;80.40;;;32.63;;
15913;SDS011;8055;51.930;8.840;2024-02-28T07:18:19;89.00;;;33.45;;
15913;SDS011;8055;51.930;8.840;2024-02-28T07:20:44;89.50;;;33.25;;
15913;SDS011;8055;51.930;8.840;2024-02-28T07:23:10;87.82;;;33.72;;
15913;SDS011;8055;51.930;8.840;2024-02-28T07:25:36;75.78;;;33.17;;
15913;SDS011;8055;51.930;8.840;2024-02-28T07:28:01;76.20;;;33.33;;
15913;SDS011;8055;51.930;8.840;2024-02-28T07:30:27;76.15;;;34.85;;
15913;SDS011;8055;51.930;8.840;2024-02-28T07:32:53;75.85;;;33.88;;
15913;SDS011;8055;51.930;8.840;2024-02-28T07:35:19;87.03;;;35.13;;
15913;SDS011;8055;51.930;8.840;2024-02-28T07:37:45;88.75;;;33.20;;
15913;SDS011;8055;51.930;8.840;2024-02-28T07:40:11;92.43;;;34.38;;
15913;SDS011;8055;51.930;8.840;2024-02-28T07:42:37;92.38;;;33.58;;
15913;SDS011;8055;51.930;8.840;2024-02-28T07:45:02;87.03;;;32.47;;
15913;SDS011;8055;51.930;8.840;2024-02-28T07:47:28;87.55;;;32.20;;
15913;SDS011;8055;51.930;8.840;2024-02-28T07:49:53;94.85;;;34.05;;
15913;SDS011;8055;51.930;8.840;2024-02-28T07:52:19;87.35;;;31.80;;
15913;SDS011;8055;51.930;8.840;2024-02-28T07:54:45;80.57;;;29.73;;
15913;SDS011;8055;51.930;8.840;2024-02-28T07:57:10;77.20;;;32.63;;
15913;SDS011;8055;51.930;8.840;2024-02-28T07:59:40;88.20;;;31.85;;
15913;SDS011;8055;51.930;8.840;2024-02-28T08:02:06;86.80;;;33.75;;
15913;SDS011;8055;51.930;8.840;2024-02-28T08:04:32;92.50;;;34.78;;
15913;SDS011;8055;51.930;8.840;2024-02-28T08:06:59;82.70;;;31.80;;
15913;SDS011;8055;51.930;8.840;2024-02-28T08:09:24;77.25;;;31.85;;
15913;SDS011;8055;51.930;8.840;2024-02-28T08:11:50;79.80;;;31.65;;
15913;SDS011;8055;51.930;8.840;2024-02-28T08:14:16;68.20;;;31.52;;
15913;SDS011;8055;51.930;8.840;2024-02-28T08:16:41;93.95;;;38.25;;
15913;SDS011;8055;51.930;8.840;2024-02-28T08:19:06;80.53;;;33.42;;
15913;SDS011;8055;51.930;8.840;2024-02-28T08:21:32;73.57;;;33.25;;
15913;SDS011;8055;51.930;8.840;2024-02-28T08:23:57;80.10;;;33.75;;
15913;SDS011;8055;51.930;8.840;2024-02-28T08:26:28;67.27;;;30.43;;
15913;SDS011;8055;51.930;8.840;2024-02-28T08:28:53;79.28;;;34.80;;
15913;SDS011;8055;51.930;8.840;2024-02-28T08:31:19;84.28;;;34.75;;
15913;SDS011;8055;51.930;8.840;2024-02-28T08:33:44;79.90;;;34.00;;
15913;SDS011;8055;51.930;8.840;2024-02-28T08:36:09;88.03;;;36.28;;
15913;SDS011;8055;51.930;8.840;2024-02-28T08:38:35;95.72;;;37.55;;
15913;SDS011;8055;51.930;8.840;2024-02-28T08:41:03;92.50;;;35.03;;
15913;SDS011;8055;51.930;8.840;2024-02-28T08:43:29;93.75;;;34.35;;
15913;SDS011;8055;51.930;8.840;2024-02-28T08:45:54;86.95;;;33.53;;
15913;SDS011;8055;51.930;8.840;2024-02-28T08:48:20;98.68;;;34.58;;
15913;SDS011;8055;51.930;8.840;2024-02-28T08:50:45;96.95;;;34.25;;
15913;SDS011;8055;51.930;8.840;2024-02-28T08:53:11;90.90;;;34.10;;
15913;SDS011;8055;51.930;8.840;2024-02-28T08:55:36;84.57;;;32.13;;
15913;SDS011;8055;51.930;8.840;2024-02-28T08:58:02;104.68;;;35.63;;
15913;SDS011;8055;51.930;8.840;2024-02-28T09:00:27;94.43;;;35.00;;
15913;SDS011;8055;51.930;8.840;2024-02-28T09:02:53;87.65;;;33.53;;
15913;SDS011;8055;51.930;8.840;2024-02-28T09:05:18;88.68;;;33.08;;
15913;SDS011;8055;51.930;8.840;2024-02-28T09:07:44;90.90;;;33.03;;
15913;SDS011;8055;51.930;8.840;2024-02-28T09:10:09;91.95;;;33.00;;
15913;SDS011;8055;51.930;8.840;2024-02-28T09:12:36;86.20;;;32.47;;
15913;SDS011;8055;51.930;8.840;2024-02-28T09:15:01;95.22;;;34.78;;
15913;SDS011;8055;51.930;8.840;2024-02-28T09:17:26;86.28;;;34.20;;
15913;SDS011;8055;51.930;8.840;2024-02-28T09:19:52;90.90;;;34.90;;
15913;SDS011;8055;51.930;8.840;2024-02-28T09:22:17;91.15;;;35.78;;
15913;SDS011;8055;51.930;8.840;2024-02-28T09:24:43;96.57;;;37.38;;
15913;SDS011;8055;51.930;8.840;2024-02-28T09:27:09;100.25;;;37.55;;
15913;SDS011;8055;51.930;8.840;2024-02-28T09:29:34;98.82;;;36.70;;
15913;SDS011;8055;51.930;8.840;2024-02-28T09:32:00;88.03;;;35.47;;
15913;SDS011;8055;51.930;8.840;2024-02-28T09:34:25;93.40;;;37.90;;
15913;SDS011;8055;51.930;8.840;2024-02-28T09:36:50;96.18;;;37.53;;
15913;SDS011;8055;51.930;8.840;2024-02-28T09:39:16;91.10;;;36.67;;
15913;SDS011;8055;51.930;8.840;2024-02-28T09:41:41;84.82;;;34.85;;
15913;SDS011;8055;51.930;8.840;2024-02-28T09:44:07;99.75;;;36.92;;
15913;SDS011;8055;51.930;8.840;2024-02-28T09:46:33;93.43;;;36.85;;
15913;SDS011;8055;51.930;8.840;2024-02-28T09:49:05;88.82;;;36.35;;
15913;SDS011;8055;51.930;8.840;2024-02-28T09:51:32;89.70;;;37.13;;
15913;SDS011;8055;51.930;8.840;2024-02-28T09:53:59;89.57;;;35.97;;
15913;SDS011;8055;51.930;8.840;2024-02-28T09:56:25;90.43;;;36.50;;
15913;SDS011;8055;51.930;8.840;2024-02-28T09:58:51;87.00;;;36.13;;
15913;SDS011;8055;51.930;8.840;2024-02-28T10:01:17;88.95;;;36.25;;
15913;SDS011;8055;51.930;8.840;2024-02-28T10:03:46;80.75;;;35.53;;
15913;SDS011;8055;51.930;8.840;2024-02-28T10:06:13;83.55;;;36.70;;
15913;SDS011;8055;51.930;8.840;2024-02-28T10:08:39;75.32;;;32.60;;
15913;SDS011;8055;51.930;8.840;2024-02-28T10:11:04;77.80;;;33.80;;
15913;SDS011;8055;51.930;8.840;2024-02-28T10:13:31;76.00;;;34.25;;
15913;SDS011;8055;51.930;8.840;2024-02-28T10:15:56;81.75;;;35.15;;
15913;SDS011;8055;51.930;8.840;2024-02-28T10:18:21;78.93;;;34.53;;
15913;SDS011;8055;51.930;8.840;2024-02-28T10:20:47;76.82;;;34.35;;
15913;SDS011;8055;51.930;8.840;2024-02-28T10:23:13;80.82;;;35.05;;
15913;SDS011;8055;51.930;8.840;2024-02-28T10:25:45;81.47;;;35.70;;
15913;SDS011;8055;51.930;8.840;2024-02-28T10:28:11;82.85;;;36.55;;
15913;SDS011;8055;51.930;8.840;2024-02-28T10:30:39;87.25;;;35.83;;
15913;SDS011;8055;51.930;8.840;2024-02-28T10:33:14;78.30;;;35.22;;
15913;SDS011;8055;51.930;8.840;2024-02-28T10:35:40;78.35;;;34.05;;
15913;SDS011;8055;51.930;8.840;2024-02-28T10:38:10;86.95;;;36.75;;
15913;SDS011;8055;51.930;8.840;2024-02-28T10:40:39;77.13;;;34.85;;
15913;SDS011;8055;51.930;8.840;2024-02-28T10:43:05;83.78;;;36.33;;
15913;SDS011;8055;51.930;8.840;2024-02-28T10:45:33;81.82;;;35.70;;
15913;SDS011;8055;51.930;8.840;2024-02-28T10:48:00;81.07;;;35.67;;
15913;SDS011;8055;51.930;8.840;2024-02-28T10:50:27;80.03;;;35.47;;
15913;SDS011;8055;51.930;8.840;2024-02-28T10:52:52;79.57;;;35.58;;
15913;SDS011;8055;51.930;8.840;2024-02-28T10:55:20;77.75;;;34.95;;
15913;SDS011;8055;51.930;8.840;2024-02-28T10:57:51;80.47;;;34.80;;
15913;SDS011;8055;51.930;8.840;2024-02-28T11:00:21;81.97;;;36.40;;
15913;SDS011;8055;51.930;8.840;2024-02-28T11:02:46;84.20;;;35.83;;
15913;SDS011;8055;51.930;8.840;2024-02-28T11:05:12;82.95;;;37.28;;
15913;SDS011;8055;51.930;8.840;2024-02-28T11:07:40;78.15;;;36.95;;
15913;SDS011;8055;51.930;8.840;2024-02-28T11:10:06;78.90;;;37.38;;
15913;SDS011;8055;51.930;8.840;2024-02-28T11:12:32;78.70;;;36.53;;
15913;SDS011;8055;51.930;8.840;2024-02-28T11:17:27;83.53;;;35.92;;
15913;SDS011;8055;51.930;8.840;2024-02-28T11:19:54;78.32;;;35.15;;
15913;SDS011;8055;51.930;8.840;2024-02-28T11:22:19;82.68;;;37.50;;
15913;SDS011;8055;51.930;8.840;2024-02-28T11:24:46;90.95;;;38.70;;
15913;SDS011;8055;51.930;8.840;2024-02-28T11:27:12;82.93;;;36.17;;
15913;SDS011;8055;51.930;8.840;2024-02-28T11:29:40;82.93;;;37.08;;
15913;SDS011;8055;51.930;8.840;2024-02-28T11:32:06;84.65;;;39.10;;
15913;SDS011;8055;51.930;8.840;2024-02-28T11:34:33;84.38;;;37.10;;
15913;SDS011;8055;51.930;8.840;2024-02-28T11:36:59;87.00;;;37.70;;
15913;SDS011;8055;51.930;8.840;2024-02-28T11:39:24;95.38;;;42.05;;
15913;SDS011;8055;51.930;8.840;2024-02-28T11:41:51;88.40;;;37.42;;
15913;SDS011;8055;51.930;8.840;2024-02-28T11:44:17;84.22;;;37.83;;
15913;SDS011;8055;51.930;8.840;2024-02-28T11:46:46;96.07;;;40.95;;
15913;SDS011;8055;51.930;8.840;2024-02-28T11:49:13;91.20;;;38.63;;
15913;SDS011;8055;51.930;8.840;2024-02-28T11:51:42;88.05;;;36.17;;
15913;SDS011;8055;51.930;8.840;2024-02-28T11:54:08;89.65;;;37.85;;
15913;SDS011;8055;51.930;8.840;2024-02-28T11:56:36;84.32;;;36.20;;
15913;SDS011;8055;51.930;8.840;2024-02-28T11:59:03;94.32;;;42.15;;
15913;SDS011;8055;51.930;8.840;2024-02-28T12:01:33;89.47;;;38.13;;
15913;SDS011;8055;51.930;8.840;2024-02-28T12:04:02;90.22;;;37.40;;
15913;SDS011;8055;51.930;8.840;2024-02-28T12:06:29;87.72;;;38.33;;
15913;SDS011;8055;51.930;8.840;2024-02-28T12:08:55;82.50;;;36.00;;
15913;SDS011;8055;51.930;8.840;2024-02-28T12:11:20;80.38;;;36.60;;
15913;SDS011;8055;51.930;8.840;2024-02-28T12:13:46;88.80;;;37.33;;
15913;SDS011;8055;51.930;8.840;2024-02-28T12:16:11;81.05;;;36.83;;
15913;SDS011;8055;51.930;8.840;2024-02-28T12:18:36;89.00;;;40.00;;
15913;SDS011;8055;51.930;8.840;2024-02-28T12:21:02;79.50;;;36.33;;
15913;SDS011;8055;51.930;8.840;2024-02-28T12:23:28;88.68;;;41.38;;
15913;SDS011;8055;51.930;8.840;2024-02-28T12:25:54;83.53;;;39.22;;
15913;SDS011;8055;51.930;8.840;2024-02-28T12:28:19;89.35;;;37.10;;
15913;SDS011;8055;51.930;8.840;2024-02-28T12:30:44;119.63;;;53.60;;
15913;SDS011;8055;51.930;8.840;2024-02-28T12:33:10;88.07;;;39.88;;
15913;SDS011;8055;51.930;8.840;2024-02-28T12:35:36;89.80;;;40.25;;
15913;SDS011;8055;51.930;8.840;2024-02-28T12:38:02;85.38;;;39.38;;
15913;SDS011;8055;51.930;8.840;2024-02-28T12:40:28;82.85;;;39.55;;
15913;SDS011;8055;51.930;8.840;2024-02-28T12:42:53;82.82;;;36.63;;
15913;SDS011;8055;51.930;8.840;2024-02-28T12:45:18;83.22;;;38.88;;
15913;SDS011;8055;51.930;8.840;2024-02-28T12:47:44;76.82;;;35.78;;
15913;SDS011;8055;51.930;8.840;2024-02-28T12:50:09;74.97;;;34.80;;
15913;SDS011;8055;51.930;8.840;2024-02-28T12:52:36;85.40;;;38.97;;
15913;SDS011;8055;51.930;8.840;2024-02-28T12:55:02;79.60;;;37.65;;
15913;SDS011;8055;51.930;8.840;2024-02-28T12:57:27;83.05;;;38.95;;
15913;SDS011;8055;51.930;8.840;2024-02-28T12:59:53;87.50;;;38.92;;
15913;SDS011;8055;51.930;8.840;2024-02-28T13:02:19;78.53;;;37.15;;
15913;SDS011;8055;51.930;8.840;2024-02-28T13:04:45;70.63;;;36.22;;
15913;SDS011;8055;51.930;8.840;2024-02-28T13:07:10;77.25;;;36.22;;
15913;SDS011;8055;51.930;8.840;2024-02-28T13:09:36;77.90;;;37.78;;
15913;SDS011;8055;51.930;8.840;2024-02-28T13:12:01;73.60;;;36.47;;
15913;SDS011;8055;51.930;8.840;2024-02-28T13:14:27;76.00;;;35.95;;
15913;SDS011;8055;51.930;8.840;2024-02-28T13:16:52;75.30;;;36.47;;
15913;SDS011;8055;51.930;8.840;2024-02-28T13:19:19;72.88;;;37.15;;
15913;SDS011;8055;51.930;8.840;2024-02-28T13:21:45;78.55;;;37.17;;
15913;SDS011;8055;51.930;8.840;2024-02-28T13:24:10;77.97;;;36.05;;
15913;SDS011;8055;51.930;8.840;2024-02-28T13:26:36;73.72;;;35.45;;
15913;SDS011;8055;51.930;8.840;2024-02-28T13:29:02;68.47;;;34.47;;
15913;SDS011;8055;51.930;8.840;2024-02-28T13:31:27;73.30;;;36.38;;
15913;SDS011;8055;51.930;8.840;2024-02-28T13:33:53;68.10;;;35.00;;
15913;SDS011;8055;51.930;8.840;2024-02-28T13:36:18;72.82;;;36.30;;
15913;SDS011;8055;51.930;8.840;2024-02-28T13:38:44;73.47;;;34.80;;
15913;SDS011;8055;51.930;8.840;2024-02-28T13:41:09;69.63;;;35.33;;
15913;SDS011;8055;51.930;8.840;2024-02-28T13:43:35;78.78;;;37.25;;
15913;SDS011;8055;51.930;8.840;2024-02-28T13:46:00;77.70;;;38.25;;
15913;SDS011;8055;51.930;8.840;2024-02-28T13:48:26;73.88;;;36.33;;
15913;SDS011;8055;51.930;8.840;2024-02-28T13:50:53;73.68;;;35.67;;
15913;SDS011;8055;51.930;8.840;2024-02-28T13:53:19;74.63;;;37.92;;
15913;SDS011;8055;51.930;8.840;2024-02-28T13:55:44;69.82;;;34.00;;
15913;SDS011;8055;51.930;8.840;2024-02-28T13:58:11;70.88;;;35.72;;
15913;SDS011;8055;51.930;8.840;2024-02-28T14:00:37;73.68;;;36.22;;
15913;SDS011;8055;51.930;8.840;2024-02-28T14:03:03;76.78;;;35.47;;
15913;SDS011;8055;51.930;8.840;2024-02-28T14:05:29;76.57;;;36.55;;
15913;SDS011;8055;51.930;8.840;2024-02-28T14:07:55;66.45;;;33.45;;
15913;SDS011;8055;51.930;8.840;2024-02-28T14:10:22;70.75;;;34.90;;
15913;SDS011;8055;51.930;8.840;2024-02-28T14:12:48;65.75;;;33.22;;
15913;SDS011;8055;51.930;8.840;2024-02-28T14:15:14;63.92;;;32.55;;
15913;SDS011;8055;51.930;8.840;2024-02-28T14:17:39;63.15;;;32.20;;
15913;SDS011;8055;51.930;8.840;2024-02-28T14:20:05;67.47;;;32.70;;
15913;SDS011;8055;51.930;8.840;2024-02-28T14:22:31;68.88;;;35.17;;
15913;SDS011;8055;51.930;8.840;2024-02-28T14:24:57;70.80;;;35.42;;
15913;SDS011;8055;51.930;8.840;2024-02-28T14:27:24;63.25;;;33.15;;